createdAt,value
2019-05-03T00:02:22.223Z,6.53
2019-05-03T00:04:54.987Z,6.17
2019-05-03T00:07:24.271Z,4.93
2019-05-03T00:09:53.543Z,4.00
2019-05-03T00:12:23.050Z,5.13
2019-05-03T00:14:55.164Z,5.40
2019-05-03T00:17:24.822Z,3.93
2019-05-03T00:19:54.132Z,4.70
2019-05-03T00:22:23.387Z,4.43
2019-05-03T00:25:05.379Z,7.57
2019-05-03T00:27:23.934Z,3.03
2019-05-03T00:29:53.312Z,4.67
2019-05-03T00:32:24.949Z,7.67
2019-05-03T00:34:56.134Z,8.37
2019-05-03T00:37:27.464Z,6.10
2019-05-03T00:40:07.159Z,5.20
2019-05-03T00:42:36.774Z,4.13
2019-05-03T00:45:08.121Z,6.67
2019-05-03T00:47:37.450Z,5.53
2019-05-03T00:50:06.965Z,4.90
2019-05-03T00:52:36.345Z,5.40
2019-05-03T00:55:16.148Z,5.13
2019-05-03T00:57:37.411Z,4.23
2019-05-03T01:00:07.622Z,4.33
2019-05-03T01:02:37.221Z,3.37
2019-05-03T01:05:07.040Z,6.00
2019-05-03T01:07:36.292Z,4.17
2019-05-03T01:10:06.134Z,2.97
2019-05-03T01:12:35.641Z,3.90
2019-05-03T01:15:06.867Z,3.00
2019-05-03T01:17:36.975Z,4.33
2019-05-03T01:20:06.909Z,4.87
2019-05-03T01:22:36.288Z,5.83
2019-05-03T01:25:06.041Z,3.23
2019-05-03T01:27:35.301Z,4.73
2019-05-03T01:30:05.682Z,5.83
2019-05-03T01:32:35.235Z,3.97
2019-05-03T01:35:04.733Z,6.23
2019-05-03T01:37:33.978Z,3.37
2019-05-03T01:40:03.664Z,4.90
2019-05-03T01:42:32.965Z,4.93
2019-05-03T01:45:02.278Z,4.40
2019-05-03T01:47:41.673Z,3.13
2019-05-03T01:50:28.282Z,4.67
2019-05-03T01:52:58.415Z,2.70
2019-05-03T01:55:46.666Z,3.93
2019-05-03T01:58:16.018Z,6.43
2019-05-03T02:00:45.286Z,3.03
2019-05-03T02:03:21.852Z,5.77
2019-05-03T02:05:52.954Z,4.53
2019-05-03T02:08:22.256Z,4.23
2019-05-03T02:10:51.855Z,3.63
2019-05-03T02:13:22.928Z,3.03
2019-05-03T02:15:52.903Z,5.67
2019-05-03T02:18:22.432Z,4.23
2019-05-03T02:20:52.532Z,3.03
2019-05-03T02:23:22.479Z,3.70
2019-05-03T02:25:58.389Z,5.33
2019-05-03T02:28:23.111Z,8.57
2019-05-03T02:30:53.421Z,7.57
2019-05-03T02:33:23.423Z,3.20
2019-05-03T02:35:53.423Z,3.47
2019-05-03T02:38:23.467Z,2.80
2019-05-03T02:40:53.358Z,3.60
2019-05-03T02:43:36.529Z,4.90
2019-05-03T02:46:25.444Z,4.67
2019-05-03T02:49:16.891Z,7.70
2019-05-03T02:51:46.295Z,7.53
2019-05-03T02:54:15.870Z,4.67
2019-05-03T02:56:46.096Z,7.77
2019-05-03T02:59:16.069Z,4.87
2019-05-03T03:01:46.578Z,4.33
2019-05-03T03:04:16.121Z,6.87
2019-05-03T03:06:48.323Z,7.37
2019-05-03T03:09:19.827Z,5.17
2019-05-03T03:11:51.194Z,5.20
2019-05-03T03:14:22.421Z,4.77
2019-05-03T03:16:55.978Z,4.40
2019-05-03T03:19:28.020Z,4.67
2019-05-03T03:22:00.541Z,5.30
2019-05-03T03:24:31.873Z,7.53
2019-05-03T03:27:05.349Z,5.67
2019-05-03T03:29:36.299Z,4.57
2019-05-03T03:32:30.331Z,5.20
2019-05-03T03:35:12.068Z,5.47
2019-05-03T03:37:37.901Z,4.30
2019-05-03T03:40:07.345Z,6.03
2019-05-03T03:42:38.913Z,4.43
2019-05-03T03:45:08.266Z,3.20
2019-05-03T03:47:39.325Z,4.03
2019-05-03T03:50:09.023Z,4.30
2019-05-03T03:52:40.623Z,3.43
2019-05-03T03:55:10.411Z,2.37
2019-05-03T03:57:40.377Z,2.13
2019-05-03T04:00:10.001Z,4.37
2019-05-03T04:02:40.385Z,2.03
2019-05-03T04:05:09.909Z,1.30
2019-05-03T04:07:39.796Z,3.63
2019-05-03T04:10:09.980Z,1.90
2019-05-03T04:12:40.868Z,1.97
2019-05-03T04:15:32.318Z,2.63
2019-05-03T04:18:29.686Z,3.57
2019-05-03T04:20:59.326Z,3.13
2019-05-03T04:23:31.863Z,3.90
2019-05-03T04:26:02.994Z,3.33
2019-05-03T04:28:36.192Z,3.70
2019-05-03T04:31:06.242Z,3.20
2019-05-03T04:33:35.962Z,2.10
2019-05-03T04:36:05.631Z,3.70
2019-05-03T04:38:35.702Z,2.10
2019-05-03T04:41:06.090Z,3.17
2019-05-03T04:43:35.778Z,2.47
2019-05-03T04:46:19.550Z,3.90
2019-05-03T04:48:48.918Z,1.30
2019-05-03T04:51:18.196Z,2.37
2019-05-03T04:53:52.847Z,2.10
2019-05-03T04:56:22.157Z,1.67
2019-05-03T04:58:51.450Z,2.13
2019-05-03T05:01:20.927Z,2.63
2019-05-03T05:03:50.253Z,2.67
2019-05-03T05:06:19.577Z,2.40
2019-05-03T05:08:49.021Z,4.03
2019-05-03T05:11:18.326Z,2.17
2019-05-03T05:13:47.709Z,2.77
2019-05-03T05:16:17.209Z,2.80
2019-05-03T05:18:51.326Z,5.60
2019-05-03T05:21:25.281Z,3.37
2019-05-03T05:24:05.570Z,4.80
2019-05-03T05:26:54.963Z,2.67
2019-05-03T05:29:26.551Z,2.70
2019-05-03T05:31:56.151Z,2.30
2019-05-03T05:34:25.509Z,3.47
2019-05-03T05:36:55.414Z,1.00
2019-05-03T05:39:24.876Z,1.37
2019-05-03T05:41:55.417Z,3.63
2019-05-03T05:44:24.949Z,1.33
2019-05-03T05:47:07.407Z,1.33
2019-05-03T05:49:58.801Z,3.37
2019-05-03T05:52:28.185Z,2.67
2019-05-03T05:55:22.497Z,1.57
2019-05-03T05:58:11.060Z,1.70
2019-05-03T06:00:56.014Z,2.60
2019-05-03T06:03:25.580Z,2.67
2019-05-03T06:05:56.479Z,1.57
2019-05-03T06:08:35.504Z,1.67
2019-05-03T06:11:21.986Z,2.45
2019-05-03T06:14:01.155Z,1.80
2019-05-03T06:16:52.135Z,0.82
2019-05-03T06:19:28.621Z,1.05
2019-05-03T06:22:25.814Z,0.83
2019-05-03T06:25:00.094Z,1.05
2019-05-03T06:27:36.092Z,1.62
2019-05-03T06:30:17.147Z,0.75
2019-05-03T06:32:46.444Z,0.62
2019-05-03T06:35:15.760Z,0.50
2019-05-03T06:37:46.088Z,1.52
2019-05-03T06:40:15.483Z,2.40
2019-05-03T06:42:52.379Z,0.80
2019-05-03T06:45:16.336Z,0.40
2019-05-03T06:47:49.771Z,0.45
2019-05-03T06:50:19.455Z,1.22
2019-05-03T06:52:48.147Z,0.85
2019-05-03T06:55:17.467Z,1.00
2019-05-03T06:57:49.743Z,0.50
2019-05-03T07:00:32.343Z,0.30
2019-05-03T07:03:25.185Z,1.52
2019-05-03T07:06:12.061Z,1.35
2019-05-03T07:09:05.206Z,0.90
2019-05-03T07:11:34.865Z,1.12
2019-05-03T07:14:05.291Z,0.80
2019-05-03T07:16:35.304Z,0.50
2019-05-03T07:19:04.704Z,0.53
2019-05-03T07:21:35.391Z,1.00
2019-05-03T07:24:05.409Z,0.88
2019-05-03T07:26:35.053Z,2.17
2019-05-03T07:29:04.982Z,0.88
2019-05-03T07:31:35.395Z,0.50
2019-05-03T07:34:05.275Z,1.05
2019-05-03T07:36:35.560Z,1.32
2019-05-03T07:39:07.730Z,1.95
2019-05-03T07:41:37.029Z,0.72
2019-05-03T07:44:06.327Z,1.92
2019-05-03T07:46:35.840Z,0.70
2019-05-03T07:49:05.393Z,0.30
2019-05-03T07:51:34.949Z,2.50
2019-05-03T07:54:04.749Z,0.60
2019-05-03T07:56:44.772Z,1.22
2019-05-03T07:59:15.012Z,2.05
2019-05-03T08:01:47.495Z,10.35
2019-05-03T08:04:17.097Z,1.45
2019-05-03T08:06:46.470Z,0.95
2019-05-03T08:09:15.769Z,1.75
2019-05-03T08:11:45.310Z,1.60
2019-05-03T08:14:18.008Z,3.00
2019-05-03T08:16:45.753Z,1.65
2019-05-03T08:19:15.399Z,1.15
2019-05-03T08:21:45.278Z,0.80
2019-05-03T08:24:15.016Z,0.50
2019-05-03T08:26:45.327Z,1.52
2019-05-03T08:29:18.678Z,0.47
2019-05-03T08:32:05.178Z,1.60
2019-05-03T08:34:39.535Z,0.72
2019-05-03T08:37:11.683Z,0.98
2019-05-03T08:39:41.020Z,0.60
2019-05-03T08:42:19.419Z,0.55
2019-05-03T08:44:48.724Z,0.72
2019-05-03T08:47:18.044Z,2.90
2019-05-03T08:49:47.469Z,0.65
2019-05-03T08:52:16.778Z,0.72
2019-05-03T08:54:46.058Z,0.93
2019-05-03T08:57:15.485Z,1.42
2019-05-03T08:59:44.828Z,1.12
2019-05-03T09:02:17.307Z,0.90
2019-05-03T09:04:46.153Z,1.32
2019-05-03T09:07:15.711Z,2.05
2019-05-03T09:10:05.454Z,1.80
2019-05-03T09:12:52.531Z,1.62
2019-05-03T09:15:22.048Z,1.33
2019-05-03T09:17:51.369Z,1.63
2019-05-03T09:20:20.671Z,1.30
2019-05-03T09:22:50.046Z,0.50
2019-05-03T09:25:19.338Z,1.43
2019-05-03T09:27:48.654Z,0.47
2019-05-03T09:30:18.549Z,0.47
2019-05-03T09:32:47.801Z,0.87
2019-05-03T09:35:29.761Z,1.67
2019-05-03T09:37:48.424Z,3.00
2019-05-03T09:40:17.714Z,0.33
2019-05-03T09:42:47.009Z,1.10
2019-05-03T09:45:16.880Z,1.57
2019-05-03T09:47:47.348Z,1.17
2019-05-03T09:50:16.816Z,0.67
2019-05-03T09:52:47.068Z,0.60
2019-05-03T09:55:25.371Z,0.90
2019-05-03T09:57:55.510Z,1.40
2019-05-03T10:00:24.862Z,0.73
2019-05-03T10:02:54.808Z,4.53
2019-05-03T10:05:25.533Z,2.70
2019-05-03T10:07:54.968Z,3.80
2019-05-03T10:10:24.875Z,2.43
2019-05-03T10:12:55.024Z,7.00
2019-05-03T10:15:41.783Z,1.03
2019-05-03T10:18:14.359Z,1.00
2019-05-03T10:20:44.647Z,3.03
2019-05-03T10:23:41.883Z,1.07
2019-05-03T10:26:11.581Z,1.23
2019-05-03T10:28:40.907Z,0.83
2019-05-03T10:31:10.877Z,0.57
2019-05-03T10:33:45.138Z,0.90
2019-05-03T10:36:15.467Z,2.70
2019-05-03T10:38:45.895Z,7.07
2019-05-03T10:41:15.651Z,1.90
2019-05-03T10:43:45.342Z,2.37
2019-05-03T10:46:15.982Z,0.97
2019-05-03T10:48:45.551Z,2.10
2019-05-03T10:51:15.921Z,2.87
2019-05-03T10:53:48.544Z,0.77
2019-05-03T10:56:23.111Z,2.43
2019-05-03T10:58:55.942Z,2.17
2019-05-03T11:01:50.497Z,2.00
2019-05-03T11:04:20.466Z,1.67
2019-05-03T11:06:49.790Z,3.37
2019-05-03T11:09:19.073Z,3.00
2019-05-03T11:11:48.588Z,1.20
2019-05-03T11:14:17.891Z,2.80
2019-05-03T11:16:47.227Z,0.87
2019-05-03T11:19:16.573Z,0.50
2019-05-03T11:21:45.886Z,2.83
2019-05-03T11:24:15.160Z,2.97
2019-05-03T11:26:46.330Z,5.10
2019-05-03T11:29:15.976Z,2.37
2019-05-03T11:32:11.515Z,3.40
2019-05-03T11:35:00.300Z,3.10
2019-05-03T11:37:47.167Z,1.80
2019-05-03T11:40:16.707Z,1.83
2019-05-03T11:42:46.380Z,4.13
2019-05-03T11:45:16.259Z,1.30
2019-05-03T11:47:45.949Z,1.40
2019-05-03T11:50:16.004Z,2.90
2019-05-03T11:52:47.159Z,1.40
2019-05-03T11:55:16.685Z,1.50
2019-05-03T11:57:46.364Z,1.20
2019-05-03T12:00:21.646Z,0.87
2019-05-03T12:02:56.590Z,1.47
2019-05-03T12:05:27.534Z,1.80
2019-05-03T12:07:57.195Z,0.90
2019-05-03T12:10:46.870Z,3.70
2019-05-03T12:13:04.902Z,1.50
2019-05-03T12:15:35.258Z,1.80
2019-05-03T12:18:08.230Z,3.23
2019-05-03T12:20:39.202Z,2.47
2019-05-03T12:23:09.671Z,1.57
2019-05-03T12:25:40.032Z,1.17
2019-05-03T12:28:10.113Z,1.70
2019-05-03T12:30:39.449Z,3.23
2019-05-03T12:33:08.860Z,2.33
2019-05-03T12:35:38.332Z,2.50
2019-05-03T12:38:07.618Z,1.53
2019-05-03T12:40:36.929Z,1.87
2019-05-03T12:43:06.580Z,1.93
2019-05-03T12:45:35.867Z,2.90
2019-05-03T12:48:05.598Z,2.10
2019-05-03T12:50:35.211Z,2.77
2019-05-03T12:53:05.061Z,2.70
2019-05-03T12:55:35.619Z,2.93
2019-05-03T12:58:06.286Z,3.27
2019-05-03T13:01:09.962Z,2.63
2019-05-03T13:03:50.779Z,4.87
2019-05-03T13:06:20.171Z,3.90
2019-05-03T13:08:49.496Z,2.10
2019-05-03T13:11:18.985Z,1.50
2019-05-03T13:13:48.354Z,2.57
2019-05-03T13:16:19.989Z,7.10
2019-05-03T13:18:49.294Z,1.20
2019-05-03T13:21:18.631Z,3.33
2019-05-03T13:23:48.044Z,4.73
2019-05-03T13:26:17.315Z,10.33
2019-05-03T13:28:46.911Z,6.70
2019-05-03T13:31:16.484Z,3.50
2019-05-03T13:33:45.801Z,2.30
2019-05-03T13:36:15.296Z,3.97
2019-05-03T13:38:45.306Z,6.73
2019-05-03T13:41:14.748Z,5.07
2019-05-03T13:43:45.459Z,5.73
2019-05-03T13:46:15.687Z,5.07
2019-05-03T13:48:48.840Z,3.93
2019-05-03T13:51:16.333Z,7.37
2019-05-03T13:53:45.595Z,6.40
2019-05-03T13:56:15.253Z,5.70
2019-05-03T13:58:44.920Z,3.90
2019-05-03T14:01:14.852Z,7.90
2019-05-03T14:03:45.267Z,5.43
2019-05-03T14:06:14.874Z,6.30
2019-05-03T14:08:45.478Z,3.97
2019-05-03T14:11:15.560Z,5.00
2019-05-03T14:13:45.166Z,2.53
2019-05-03T14:16:14.626Z,9.10
2019-05-03T14:18:45.680Z,6.60
2019-05-03T14:21:24.462Z,3.33
2019-05-03T14:24:12.843Z,3.83
2019-05-03T14:26:44.832Z,5.23
2019-05-03T14:29:14.860Z,5.67
2019-05-03T14:31:45.366Z,5.00
2019-05-03T14:34:17.347Z,3.60
2019-05-03T14:36:46.033Z,7.20
2019-05-03T14:39:15.348Z,5.63
2019-05-03T14:41:46.791Z,4.00
2019-05-03T14:44:18.130Z,9.13
2019-05-03T14:46:47.074Z,5.53
2019-05-03T14:49:16.381Z,3.37
2019-05-03T14:51:45.781Z,3.73
2019-05-03T14:54:15.437Z,6.13
2019-05-03T14:56:54.275Z,6.57
2019-05-03T14:59:42.556Z,5.67
2019-05-03T15:02:21.870Z,4.73
2019-05-03T15:04:51.170Z,5.00
2019-05-03T15:07:20.547Z,5.27
2019-05-03T15:09:50.078Z,5.67
2019-05-03T15:12:19.362Z,7.43
2019-05-03T15:14:48.694Z,7.40
2019-05-03T15:17:18.136Z,6.50
2019-05-03T15:19:47.420Z,8.77
2019-05-03T15:22:16.692Z,5.80
2019-05-03T15:24:46.061Z,4.63
2019-05-03T15:27:15.319Z,6.57
2019-05-03T15:29:44.875Z,4.27
2019-05-03T15:32:15.503Z,5.80
2019-05-03T15:34:44.902Z,8.13
2019-05-03T15:37:14.826Z,2.47
2019-05-03T15:39:45.135Z,5.20
2019-05-03T15:42:14.938Z,6.50
2019-05-03T15:45:06.604Z,7.23
2019-05-03T15:48:00.752Z,6.17
2019-05-03T15:50:30.190Z,5.37
2019-05-03T15:52:59.536Z,5.53
2019-05-03T15:55:28.901Z,3.63
2019-05-03T15:57:58.226Z,5.73
2019-05-03T16:00:27.474Z,4.07
2019-05-03T16:03:07.493Z,7.67
2019-05-03T16:05:27.905Z,5.07
2019-05-03T16:07:57.176Z,6.30
2019-05-03T16:10:26.531Z,4.27
2019-05-03T16:12:56.021Z,3.67
2019-05-03T16:15:25.444Z,5.23
2019-05-03T16:17:54.899Z,6.20
2019-05-03T16:20:25.189Z,3.77
2019-05-03T16:22:54.615Z,5.17
2019-05-03T16:25:25.071Z,5.70
2019-05-03T16:28:04.830Z,6.07
2019-05-03T16:30:42.751Z,3.00
2019-05-03T16:33:24.060Z,4.23
2019-05-03T16:35:44.513Z,3.33
2019-05-03T16:38:15.674Z,5.47
2019-05-03T16:40:45.271Z,6.70
2019-05-03T16:43:16.174Z,5.10
2019-05-03T16:45:45.962Z,3.80
2019-05-03T16:48:18.176Z,5.40
2019-05-03T16:50:46.256Z,3.87
2019-05-03T16:53:15.720Z,5.20
2019-05-03T16:55:44.997Z,3.80
2019-05-03T16:58:14.950Z,7.13
2019-05-03T17:00:45.628Z,3.73
2019-05-03T17:03:17.235Z,6.60
2019-05-03T17:06:03.314Z,3.27
2019-05-03T17:08:39.477Z,5.17
2019-05-03T17:11:10.830Z,6.07
2019-05-03T17:13:40.082Z,3.97
2019-05-03T17:16:09.469Z,6.60
2019-05-03T17:18:38.873Z,2.87
2019-05-03T17:21:08.327Z,7.40
2019-05-03T17:23:37.705Z,3.90
2019-05-03T17:26:07.043Z,4.43
2019-05-03T17:28:36.311Z,3.47
2019-05-03T17:31:05.696Z,2.80
2019-05-03T17:33:35.249Z,2.93
2019-05-03T17:36:05.102Z,4.63
2019-05-03T17:38:35.213Z,3.70
2019-05-03T17:41:22.349Z,3.00
2019-05-03T17:44:04.987Z,3.27
2019-05-03T17:46:34.788Z,6.67
2019-05-03T17:49:05.220Z,4.07
2019-05-03T17:51:52.025Z,7.27
2019-05-03T17:54:55.318Z,3.37
2019-05-03T17:57:34.926Z,4.07
2019-05-03T18:00:21.849Z,3.43
2019-05-03T18:02:51.280Z,4.07
2019-05-03T18:05:34.962Z,1.53
2019-05-03T18:08:15.873Z,3.30
2019-05-03T18:10:50.564Z,4.07
2019-05-03T18:13:20.053Z,5.70
2019-05-03T18:15:49.358Z,4.13
2019-05-03T18:18:18.738Z,2.77
2019-05-03T18:20:48.282Z,2.87
2019-05-03T18:23:17.510Z,5.17
2019-05-03T18:25:46.839Z,2.77
2019-05-03T18:28:16.175Z,4.60
2019-05-03T18:30:45.605Z,4.37
2019-05-03T18:33:15.409Z,3.23
2019-05-03T18:35:44.837Z,3.53
2019-05-03T18:38:14.787Z,5.93
2019-05-03T18:40:44.813Z,5.13
2019-05-03T18:43:21.751Z,2.73
2019-05-03T18:46:22.096Z,3.77
2019-05-03T18:48:51.613Z,3.47
2019-05-03T18:51:20.952Z,6.10
2019-05-03T18:53:50.582Z,3.40
2019-05-03T18:56:19.900Z,3.23
2019-05-03T18:58:49.217Z,2.60
2019-05-03T19:01:18.558Z,4.23
2019-05-03T19:03:50.371Z,2.77
2019-05-03T19:06:19.673Z,2.63
2019-05-03T19:09:06.800Z,2.77
2019-05-03T19:11:42.427Z,2.13
2019-05-03T19:14:14.889Z,1.70
2019-05-03T19:16:54.582Z,2.33
2019-05-03T19:19:26.901Z,3.23
2019-05-03T19:21:56.221Z,5.10
2019-05-03T19:24:25.523Z,7.43
2019-05-03T19:26:54.973Z,5.13
2019-05-03T19:29:24.981Z,2.13
2019-05-03T19:31:55.287Z,4.07
2019-05-03T19:34:26.878Z,3.00
2019-05-03T19:36:55.764Z,2.13
2019-05-03T19:39:25.383Z,3.47
2019-05-03T19:41:55.281Z,2.90
2019-05-03T19:44:24.692Z,3.13
2019-05-03T19:46:54.241Z,3.20
2019-05-03T19:49:24.651Z,5.07
2019-05-03T19:51:54.640Z,3.57
2019-05-03T19:54:24.117Z,5.70
2019-05-03T19:56:55.534Z,3.37
2019-05-03T20:00:01.716Z,5.17
2019-05-03T20:02:54.340Z,2.40
2019-05-03T20:05:36.313Z,2.77
2019-05-03T20:08:10.078Z,3.03
2019-05-03T20:10:39.477Z,3.30
2019-05-03T20:13:08.734Z,3.00
2019-05-03T20:15:38.052Z,3.83
2019-05-03T20:18:07.540Z,3.77
2019-05-03T20:20:36.771Z,3.10
2019-05-03T20:23:06.074Z,5.33
2019-05-03T20:25:35.447Z,5.47
2019-05-03T20:28:05.088Z,3.77
2019-05-03T20:30:34.934Z,5.20
2019-05-03T20:33:04.386Z,4.17
2019-05-03T20:35:35.643Z,4.53
2019-05-03T20:38:05.296Z,3.63
2019-05-03T20:40:35.153Z,5.37
2019-05-03T20:43:14.687Z,8.50
2019-05-03T20:45:52.070Z,8.37
2019-05-03T20:48:22.107Z,5.73
2019-05-03T20:50:51.369Z,5.83
2019-05-03T20:53:20.728Z,5.37
2019-05-03T20:55:50.068Z,5.57
2019-05-03T20:58:19.377Z,5.70
2019-05-03T21:00:48.693Z,7.87
2019-05-03T21:03:18.244Z,5.97
2019-05-03T21:05:47.549Z,6.30
2019-05-03T21:08:16.819Z,4.73
2019-05-03T21:10:46.220Z,5.97
2019-05-03T21:13:15.769Z,7.40
2019-05-03T21:15:59.556Z,5.50
2019-05-03T21:18:36.880Z,7.63
2019-05-03T21:21:14.605Z,5.73
2019-05-03T21:23:47.634Z,8.30
2019-05-03T21:26:17.080Z,7.47
2019-05-03T21:28:46.358Z,6.27
2019-05-03T21:31:15.801Z,5.63
2019-05-03T21:33:45.215Z,5.50
2019-05-03T21:36:15.122Z,9.53
2019-05-03T21:38:44.539Z,5.57
2019-05-03T21:41:15.652Z,5.83
2019-05-03T21:43:45.239Z,10.10
2019-05-03T21:46:25.433Z,7.93
2019-05-03T21:49:05.166Z,3.97
2019-05-03T21:51:34.757Z,3.57
2019-05-03T21:54:06.624Z,3.70
2019-05-03T21:56:35.717Z,4.53
2019-05-03T21:59:05.556Z,6.97
2019-05-03T22:01:37.492Z,5.63
2019-05-03T22:04:06.923Z,5.43
2019-05-03T22:06:36.257Z,2.63
2019-05-03T22:09:07.208Z,6.30
2019-05-03T22:11:36.601Z,7.93
2019-05-03T22:14:09.836Z,4.67
2019-05-03T22:16:58.331Z,5.43
2019-05-03T22:19:27.637Z,7.00
2019-05-03T22:22:14.941Z,4.87
2019-05-03T22:24:51.133Z,3.53
2019-05-03T22:27:21.796Z,5.77
2019-05-03T22:29:51.116Z,2.80
2019-05-03T22:32:20.516Z,5.10
2019-05-03T22:34:49.831Z,5.93
2019-05-03T22:37:19.121Z,3.73
2019-05-03T22:39:48.563Z,9.53
2019-05-03T22:42:18.099Z,9.13
2019-05-03T22:44:47.377Z,7.77
2019-05-03T22:47:16.946Z,9.70
2019-05-03T22:49:46.309Z,4.97
2019-05-03T22:52:15.660Z,9.53
2019-05-03T22:54:45.293Z,15.13
2019-05-03T22:57:15.278Z,5.67
2019-05-03T22:59:44.897Z,3.43
2019-05-03T23:02:16.831Z,5.03
2019-05-03T23:04:45.493Z,10.60
2019-05-03T23:07:15.044Z,6.33
2019-05-03T23:09:44.746Z,7.83
2019-05-03T23:12:14.099Z,5.17
2019-05-03T23:14:44.661Z,8.43
2019-05-03T23:17:14.920Z,6.40
2019-05-03T23:19:46.994Z,7.57
2019-05-03T23:22:28.708Z,10.80
2019-05-03T23:24:58.029Z,8.83
2019-05-03T23:27:27.262Z,7.77
2019-05-03T23:29:56.529Z,5.37
2019-05-03T23:32:25.991Z,6.03
2019-05-03T23:34:55.296Z,5.30
2019-05-03T23:37:24.742Z,7.03
2019-05-03T23:39:55.143Z,8.27
2019-05-03T23:42:24.592Z,5.70
2019-05-03T23:44:53.831Z,6.17
2019-05-03T23:47:30.426Z,11.70
2019-05-03T23:49:59.668Z,7.30
2019-05-03T23:52:36.149Z,6.00
2019-05-03T23:55:40.617Z,9.93
2019-05-03T23:58:10.247Z,6.17
